sensor_id;sensor_type;location;lat;lon;timestamp;pressure;altitude;pressure_sealevel;temperature;humidity
50852;BME280;43953;45.508;-122.806;2022-11-15T00:00:15;101864.81;;;12.76;39.84
50852;BME280;43953;45.508;-122.806;2022-11-15T00:00:47;101864.59;;;12.78;39.50
50852;BME280;43953;45.508;-122.806;2022-11-15T00:01:19;101858.38;;;12.77;39.65
50852;BME280;43953;45.508;-122.806;2022-11-15T00:01:51;101855.88;;;12.75;39.50
50852;BME280;43953;45.508;-122.806;2022-11-15T00:02:22;101850.47;;;12.75;39.11
50852;BME280;43953;45.508;-122.806;2022-11-15T00:02:54;101856.88;;;12.74;38.82
50852;BME280;43953;45.508;-122.806;2022-11-15T00:03:27;101854.19;;;12.74;39.46
50852;BME280;43953;45.508;-122.806;2022-11-15T00:03:59;101847.94;;;12.74;39.63
50852;BME280;43953;45.508;-122.806;2022-11-15T00:04:30;101862.28;;;12.74;39.21
50852;BME280;43953;45.508;-122.806;2022-11-15T00:05:02;101859.59;;;12.74;39.28
50852;BME280;43953;45.508;-122.806;2022-11-15T00:05:35;101843.38;;;12.74;39.22
50852;BME280;43953;45.508;-122.806;2022-11-15T00:06:08;101855.22;;;12.73;39.42
50852;BME280;43953;45.508;-122.806;2022-11-15T00:06:40;101844.41;;;12.73;39.42
50852;BME280;43953;45.508;-122.806;2022-11-15T00:07:11;101859.97;;;12.71;39.26
50852;BME280;43953;45.508;-122.806;2022-11-15T00:07:43;101860.84;;;12.72;39.19
50852;BME280;43953;45.508;-122.806;2022-11-15T00:08:15;101859.97;;;12.71;39.36
50852;BME280;43953;45.508;-122.806;2022-11-15T00:08:46;101868.09;;;12.71;39.46
50852;BME280;43953;45.508;-122.806;2022-11-15T00:09:18;101850.03;;;12.72;38.82
50852;BME280;43953;45.508;-122.806;2022-11-15T00:09:50;101863.72;;;12.70;38.58
50852;BME280;43953;45.508;-122.806;2022-11-15T00:10:22;101851.44;;;12.68;38.88
50852;BME280;43953;45.508;-122.806;2022-11-15T00:11:00;101848.94;;;12.66;38.76
50852;BME280;43953;45.508;-122.806;2022-11-15T00:11:32;101859.53;;;12.68;38.43
50852;BME280;43953;45.508;-122.806;2022-11-15T00:12:04;101856.66;;;12.69;38.96
50852;BME280;43953;45.508;-122.806;2022-11-15T00:12:36;101860.38;;;12.68;38.90
50852;BME280;43953;45.508;-122.806;2022-11-15T00:13:10;101860.56;;;12.67;38.63
50852;BME280;43953;45.508;-122.806;2022-11-15T00:13:42;101859.75;;;12.66;39.08
50852;BME280;43953;45.508;-122.806;2022-11-15T00:14:14;101862.44;;;12.66;38.69
50852;BME280;43953;45.508;-122.806;2022-11-15T00:14:45;101861.41;;;12.67;38.42
50852;BME280;43953;45.508;-122.806;2022-11-15T00:15:17;101862.44;;;12.66;38.96
50852;BME280;43953;45.508;-122.806;2022-11-15T00:15:49;101867.00;;;12.66;38.80
50852;BME280;43953;45.508;-122.806;2022-11-15T00:16:21;101869.06;;;12.64;38.63
50852;BME280;43953;45.508;-122.806;2022-11-15T00:16:53;101870.94;;;12.63;38.74
50852;BME280;43953;45.508;-122.806;2022-11-15T00:17:25;101870.94;;;12.63;38.70
50852;BME280;43953;45.508;-122.806;2022-11-15T00:17:56;101867.38;;;12.63;38.74
50852;BME280;43953;45.508;-122.806;2022-11-15T00:18:29;101871.97;;;12.62;38.65
50852;BME280;43953;45.508;-122.806;2022-11-15T00:19:01;101880.06;;;12.62;38.97
50852;BME280;43953;45.508;-122.806;2022-11-15T00:19:33;101879.44;;;12.60;39.05
50852;BME280;43953;45.508;-122.806;2022-11-15T00:20:06;101876.53;;;12.62;38.70
50852;BME280;43953;45.508;-122.806;2022-11-15T00:20:38;101873.00;;;12.61;38.62
50852;BME280;43953;45.508;-122.806;2022-11-15T00:21:12;101889.22;;;12.61;38.61
50852;BME280;43953;45.508;-122.806;2022-11-15T00:21:44;101878.41;;;12.61;38.71
50852;BME280;43953;45.508;-122.806;2022-11-15T00:22:15;101876.91;;;12.59;38.43
50852;BME280;43953;45.508;-122.806;2022-11-15T00:22:47;101891.66;;;12.56;38.18
50852;BME280;43953;45.508;-122.806;2022-11-15T00:23:19;101875.66;;;12.55;38.14
50852;BME280;43953;45.508;-122.806;2022-11-15T00:23:51;101883.28;;;12.51;38.56
50852;BME280;43953;45.508;-122.806;2022-11-15T00:24:22;101883.47;;;12.49;38.45
50852;BME280;43953;45.508;-122.806;2022-11-15T00:24:54;101882.84;;;12.47;38.55
50852;BME280;43953;45.508;-122.806;2022-11-15T00:25:26;101878.84;;;12.43;38.77
50852;BME280;43953;45.508;-122.806;2022-11-15T00:25:58;101879.69;;;12.44;38.95
50852;BME280;43953;45.508;-122.806;2022-11-15T00:26:30;101870.94;;;12.42;38.84
50852;BME280;43953;45.508;-122.806;2022-11-15T00:27:02;101876.34;;;12.42;38.76
50852;BME280;43953;45.508;-122.806;2022-11-15T00:27:34;101879.25;;;12.40;38.60
50852;BME280;43953;45.508;-122.806;2022-11-15T00:28:06;101890.22;;;12.39;38.64
50852;BME280;43953;45.508;-122.806;2022-11-15T00:28:38;101876.72;;;12.39;38.79
50852;BME280;43953;45.508;-122.806;2022-11-15T00:29:09;101883.16;;;12.38;38.98
50852;BME280;43953;45.508;-122.806;2022-11-15T00:29:41;101887.53;;;12.39;38.96
50852;BME280;43953;45.508;-122.806;2022-11-15T00:30:14;101870.69;;;12.37;38.63
50852;BME280;43953;45.508;-122.806;2022-11-15T00:30:46;101873.41;;;12.37;38.87
50852;BME280;43953;45.508;-122.806;2022-11-15T00:31:18;101881.69;;;12.35;39.05
50852;BME280;43953;45.508;-122.806;2022-11-15T00:31:49;101874.22;;;12.37;38.60
50852;BME280;43953;45.508;-122.806;2022-11-15T00:32:21;101875.06;;;12.38;38.90
50852;BME280;43953;45.508;-122.806;2022-11-15T00:32:53;101882.50;;;12.36;39.15
50852;BME280;43953;45.508;-122.806;2022-11-15T00:33:25;101881.69;;;12.35;39.09
50852;BME280;43953;45.508;-122.806;2022-11-15T00:33:56;101893.97;;;12.38;38.80
50852;BME280;43953;45.508;-122.806;2022-11-15T00:34:28;101899.53;;;12.36;39.19
50852;BME280;43953;45.508;-122.806;2022-11-15T00:35:00;101904.31;;;12.34;39.33
50852;BME280;43953;45.508;-122.806;2022-11-15T00:35:33;101884.75;;;12.32;39.21
50852;BME280;43953;45.508;-122.806;2022-11-15T00:36:09;101882.88;;;12.33;39.25
50852;BME280;43953;45.508;-122.806;2022-11-15T00:36:41;101888.28;;;12.33;38.93
50852;BME280;43953;45.508;-122.806;2022-11-15T00:37:13;101894.06;;;12.29;39.08
50852;BME280;43953;45.508;-122.806;2022-11-15T00:37:45;101885.34;;;12.27;39.25
50852;BME280;43953;45.508;-122.806;2022-11-15T00:38:18;101890.53;;;12.29;38.77
50852;BME280;43953;45.508;-122.806;2022-11-15T00:38:50;101879.56;;;12.31;39.27
50852;BME280;43953;45.508;-122.806;2022-11-15T00:39:22;101893.91;;;12.31;39.12
50852;BME280;43953;45.508;-122.806;2022-11-15T00:39:53;101884.09;;;12.30;39.12
50852;BME280;43953;45.508;-122.806;2022-11-15T00:40:25;101889.72;;;12.28;39.06
50852;BME280;43953;45.508;-122.806;2022-11-15T00:40:57;101885.34;;;12.27;39.29
50852;BME280;43953;45.508;-122.806;2022-11-15T00:41:29;101890.75;;;12.27;38.83
50852;BME280;43953;45.508;-122.806;2022-11-15T00:42:01;101897.16;;;12.26;38.81
50852;BME280;43953;45.508;-122.806;2022-11-15T00:42:32;101894.47;;;12.26;38.76
50852;BME280;43953;45.508;-122.806;2022-11-15T00:43:04;101898.19;;;12.25;38.89
50852;BME280;43953;45.508;-122.806;2022-11-15T00:43:36;101900.91;;;12.25;39.17
50852;BME280;43953;45.508;-122.806;2022-11-15T00:44:08;101895.69;;;12.24;39.15
50852;BME280;43953;45.508;-122.806;2022-11-15T00:44:39;101893.19;;;12.22;39.04
50852;BME280;43953;45.508;-122.806;2022-11-15T00:45:11;101902.28;;;12.21;39.10
50852;BME280;43953;45.508;-122.806;2022-11-15T00:45:43;101903.53;;;12.19;39.36
50852;BME280;43953;45.508;-122.806;2022-11-15T00:46:15;101892.91;;;12.17;39.29
50852;BME280;43953;45.508;-122.806;2022-11-15T00:46:46;101908.44;;;12.15;39.16
50852;BME280;43953;45.508;-122.806;2022-11-15T00:47:19;101891.63;;;12.13;39.17
50852;BME280;43953;45.508;-122.806;2022-11-15T00:47:51;101910.69;;;12.12;38.97
50852;BME280;43953;45.508;-122.806;2022-11-15T00:48:23;101903.66;;;12.11;39.48
50852;BME280;43953;45.508;-122.806;2022-11-15T00:48:54;101903.00;;;12.09;39.24
50852;BME280;43953;45.508;-122.806;2022-11-15T00:49:26;101898.78;;;12.06;38.88
50852;BME280;43953;45.508;-122.806;2022-11-15T00:49:58;101913.34;;;12.05;39.44
50852;BME280;43953;45.508;-122.806;2022-11-15T00:50:30;101895.84;;;12.01;39.49
50852;BME280;43953;45.508;-122.806;2022-11-15T00:51:01;101901.25;;;12.01;39.05
50852;BME280;43953;45.508;-122.806;2022-11-15T00:51:33;101905.63;;;12.02;39.07
50852;BME280;43953;45.508;-122.806;2022-11-15T00:52:05;101902.91;;;12.02;39.53
50852;BME280;43953;45.508;-122.806;2022-11-15T00:52:36;101910.34;;;12.00;39.67
50852;BME280;43953;45.508;-122.806;2022-11-15T00:53:08;101903.28;;;11.99;39.97
50852;BME280;43953;45.508;-122.806;2022-11-15T00:53:40;101910.34;;;12.00;39.26
50852;BME280;43953;45.508;-122.806;2022-11-15T00:54:12;101917.44;;;12.01;40.03
50852;BME280;43953;45.508;-122.806;2022-11-15T00:54:43;101910.19;;;12.01;39.40
50852;BME280;43953;45.508;-122.806;2022-11-15T00:55:16;101893.16;;;12.01;39.76
50852;BME280;43953;45.508;-122.806;2022-11-15T00:55:49;101920.31;;;11.99;39.31
50852;BME280;43953;45.508;-122.806;2022-11-15T00:56:20;101907.00;;;11.98;39.38
50852;BME280;43953;45.508;-122.806;2022-11-15T00:56:52;101908.03;;;11.97;39.91
50852;BME280;43953;45.508;-122.806;2022-11-15T00:57:24;101906.38;;;11.96;39.63
50852;BME280;43953;45.508;-122.806;2022-11-15T00:57:56;101909.06;;;11.96;39.58
50852;BME280;43953;45.508;-122.806;2022-11-15T00:58:27;101902.63;;;11.97;39.88
50852;BME280;43953;45.508;-122.806;2022-11-15T00:58:59;101917.78;;;11.98;39.43
50852;BME280;43953;45.508;-122.806;2022-11-15T00:59:31;101905.34;;;11.97;39.44
50852;BME280;43953;45.508;-122.806;2022-11-15T01:00:03;101904.50;;;11.96;39.46
50852;BME280;43953;45.508;-122.806;2022-11-15T01:00:35;101904.69;;;11.95;39.92
50852;BME280;43953;45.508;-122.806;2022-11-15T01:01:12;101900.31;;;11.94;39.57
50852;BME280;43953;45.508;-122.806;2022-11-15T01:01:44;101911.31;;;11.92;40.19
50852;BME280;43953;45.508;-122.806;2022-11-15T01:02:15;101915.03;;;11.91;40.04
50852;BME280;43953;45.508;-122.806;2022-11-15T01:02:47;101900.69;;;11.91;39.96
50852;BME280;43953;45.508;-122.806;2022-11-15T01:03:19;101914.41;;;11.89;39.47
50852;BME280;43953;45.508;-122.806;2022-11-15T01:03:51;101906.31;;;11.89;39.32
50852;BME280;43953;45.508;-122.806;2022-11-15T01:04:22;101916.22;;;11.89;39.69
50852;BME280;43953;45.508;-122.806;2022-11-15T01:04:54;101923.50;;;11.88;39.46
50852;BME280;43953;45.508;-122.806;2022-11-15T01:05:26;101904.81;;;11.87;39.50
50852;BME280;43953;45.508;-122.806;2022-11-15T01:05:59;101905.63;;;11.87;39.35
50852;BME280;43953;45.508;-122.806;2022-11-15T01:06:31;101914.78;;;11.86;39.43
50852;BME280;43953;45.508;-122.806;2022-11-15T01:07:03;101915.59;;;11.87;39.35
50852;BME280;43953;45.508;-122.806;2022-11-15T01:07:35;101916.59;;;11.86;39.91
50852;BME280;43953;45.508;-122.806;2022-11-15T01:08:12;101918.66;;;11.83;39.47
50852;BME280;43953;45.508;-122.806;2022-11-15T01:08:44;101911.56;;;11.82;39.78
50852;BME280;43953;45.508;-122.806;2022-11-15T01:09:16;101912.59;;;11.81;39.99
50852;BME280;43953;45.508;-122.806;2022-11-15T01:09:48;101918.00;;;11.81;39.65
50852;BME280;43953;45.508;-122.806;2022-11-15T01:10:20;101920.03;;;11.79;39.56
50852;BME280;43953;45.508;-122.806;2022-11-15T01:10:52;101921.06;;;11.78;39.69
50852;BME280;43953;45.508;-122.806;2022-11-15T01:11:23;101916.69;;;11.77;39.63
50852;BME280;43953;45.508;-122.806;2022-11-15T01:11:55;101927.28;;;11.79;39.64
50852;BME280;43953;45.508;-122.806;2022-11-15T01:12:27;101920.41;;;11.76;40.11
50852;BME280;43953;45.508;-122.806;2022-11-15T01:12:59;101921.63;;;11.74;39.98
50852;BME280;43953;45.508;-122.806;2022-11-15T01:13:32;101915.59;;;11.72;40.18
50852;BME280;43953;45.508;-122.806;2022-11-15T01:14:05;101908.69;;;11.69;39.93
50852;BME280;43953;45.508;-122.806;2022-11-15T01:14:37;101912.41;;;11.68;39.94
50852;BME280;43953;45.508;-122.806;2022-11-15T01:15:08;101923.19;;;11.68;40.28
50852;BME280;43953;45.508;-122.806;2022-11-15T01:15:41;101914.94;;;11.70;40.04
50852;BME280;43953;45.508;-122.806;2022-11-15T01:16:15;101914.25;;;11.68;39.68
50852;BME280;43953;45.508;-122.806;2022-11-15T01:16:48;101916.78;;;11.69;40.12
50852;BME280;43953;45.508;-122.806;2022-11-15T01:17:20;101906.00;;;11.69;39.94
50852;BME280;43953;45.508;-122.806;2022-11-15T01:17:51;101918.66;;;11.69;40.11
50852;BME280;43953;45.508;-122.806;2022-11-15T01:18:23;101914.09;;;11.69;39.79
50852;BME280;43953;45.508;-122.806;2022-11-15T01:18:55;101912.41;;;11.68;39.62
50852;BME280;43953;45.508;-122.806;2022-11-15T01:19:27;101910.56;;;11.69;39.95
50852;BME280;43953;45.508;-122.806;2022-11-15T01:19:59;101900.78;;;11.68;39.44
50852;BME280;43953;45.508;-122.806;2022-11-15T01:20:30;101900.78;;;11.68;39.56
50852;BME280;43953;45.508;-122.806;2022-11-15T01:21:07;101916.97;;;11.68;39.89
50852;BME280;43953;45.508;-122.806;2022-11-15T01:21:39;101910.75;;;11.67;39.90
50852;BME280;43953;45.508;-122.806;2022-11-15T01:22:11;101902.84;;;11.66;40.15
50852;BME280;43953;45.508;-122.806;2022-11-15T01:22:42;101904.50;;;11.67;40.12
50852;BME280;43953;45.508;-122.806;2022-11-15T01:23:14;101903.69;;;11.66;39.87
50852;BME280;43953;45.508;-122.806;2022-11-15T01:23:46;101903.69;;;11.66;39.94
50852;BME280;43953;45.508;-122.806;2022-11-15T01:24:18;101908.25;;;11.66;39.91
50852;BME280;43953;45.508;-122.806;2022-11-15T01:24:50;101896.59;;;11.65;39.56
50852;BME280;43953;45.508;-122.806;2022-11-15T01:25:22;101901.16;;;11.65;39.44
50852;BME280;43953;45.508;-122.806;2022-11-15T01:25:59;101920.25;;;11.63;39.76
50852;BME280;43953;45.508;-122.806;2022-11-15T01:26:31;101907.97;;;11.60;39.86
50852;BME280;43953;45.508;-122.806;2022-11-15T01:27:03;101900.03;;;11.59;39.93
50852;BME280;43953;45.508;-122.806;2022-11-15T01:27:34;101913.72;;;11.57;39.89
50852;BME280;43953;45.508;-122.806;2022-11-15T01:28:06;101907.50;;;11.57;39.44
50852;BME280;43953;45.508;-122.806;2022-11-15T01:28:39;101918.66;;;11.54;39.88
50852;BME280;43953;45.508;-122.806;2022-11-15T01:29:11;101914.28;;;11.53;39.93
50852;BME280;43953;45.508;-122.806;2022-11-15T01:29:43;101925.25;;;11.51;40.23
50852;BME280;43953;45.508;-122.806;2022-11-15T01:30:15;101915.31;;;11.52;39.96
50852;BME280;43953;45.508;-122.806;2022-11-15T01:30:47;101923.56;;;11.50;39.84
50852;BME280;43953;45.508;-122.806;2022-11-15T01:31:20;101909.25;;;11.50;40.11
50852;BME280;43953;45.508;-122.806;2022-11-15T01:31:53;101913.81;;;11.49;39.64
50852;BME280;43953;45.508;-122.806;2022-11-15T01:32:25;101920.03;;;11.50;39.96
50852;BME280;43953;45.508;-122.806;2022-11-15T01:32:57;101925.44;;;11.50;39.56
50852;BME280;43953;45.508;-122.806;2022-11-15T01:33:29;101930.19;;;11.48;39.72
50852;BME280;43953;45.508;-122.806;2022-11-15T01:34:01;101907.97;;;11.46;40.04
50852;BME280;43953;45.508;-122.806;2022-11-15T01:34:33;101929.53;;;11.46;40.14
50852;BME280;43953;45.508;-122.806;2022-11-15T01:35:05;101923.69;;;11.42;40.08
50852;BME280;43953;45.508;-122.806;2022-11-15T01:35:38;101927.22;;;11.43;40.28
50852;BME280;43953;45.508;-122.806;2022-11-15T01:36:17;101931.94;;;11.41;40.18
50852;BME280;43953;45.508;-122.806;2022-11-15T01:36:49;101932.78;;;11.41;40.20
50852;BME280;43953;45.508;-122.806;2022-11-15T01:37:21;101929.44;;;11.39;40.31
50852;BME280;43953;45.508;-122.806;2022-11-15T01:37:52;101939.19;;;11.40;39.86
50852;BME280;43953;45.508;-122.806;2022-11-15T01:38:24;101925.25;;;11.36;39.96
50852;BME280;43953;45.508;-122.806;2022-11-15T01:38:57;101925.63;;;11.33;40.21
50852;BME280;43953;45.508;-122.806;2022-11-15T01:39:29;101934.72;;;11.32;40.48
50852;BME280;43953;45.508;-122.806;2022-11-15T01:40:01;101938.44;;;11.31;40.55
50852;BME280;43953;45.508;-122.806;2022-11-15T01:40:34;101934.09;;;11.30;40.59
50852;BME280;43953;45.508;-122.806;2022-11-15T01:41:06;101934.09;;;11.30;40.20
50852;BME280;43953;45.508;-122.806;2022-11-15T01:41:38;101922.47;;;11.30;40.58
50852;BME280;43953;45.508;-122.806;2022-11-15T01:42:13;101917.91;;;11.30;40.18
50852;BME280;43953;45.508;-122.806;2022-11-15T01:42:44;101929.69;;;11.29;40.35
50852;BME280;43953;45.508;-122.806;2022-11-15T01:43:54;101929.06;;;11.27;40.58
50852;BME280;43953;45.508;-122.806;2022-11-15T01:44:46;101928.41;;;11.25;40.40
50852;BME280;43953;45.508;-122.806;2022-11-15T01:45:19;101925.03;;;11.23;40.94
50852;BME280;43953;45.508;-122.806;2022-11-15T01:47:53;101934.06;;;11.15;40.65
50852;BME280;43953;45.508;-122.806;2022-11-15T01:48:25;101939.97;;;11.11;41.03
50852;BME280;43953;45.508;-122.806;2022-11-15T01:49:03;101946.41;;;11.10;40.88
50852;BME280;43953;45.508;-122.806;2022-11-15T01:49:39;101933.94;;;11.09;40.81
50852;BME280;43953;45.508;-122.806;2022-11-15T01:50:17;101935.97;;;11.07;41.01
50852;BME280;43953;45.508;-122.806;2022-11-15T01:50:52;101945.94;;;11.06;41.24
50852;BME280;43953;45.508;-122.806;2022-11-15T01:51:26;101940.53;;;11.06;40.75
50852;BME280;43953;45.508;-122.806;2022-11-15T01:52:01;101939.69;;;11.06;40.95
50852;BME280;43953;45.508;-122.806;2022-11-15T01:52:34;101938.84;;;11.05;40.94
50852;BME280;43953;45.508;-122.806;2022-11-15T01:53:07;101936.97;;;11.06;41.09
50852;BME280;43953;45.508;-122.806;2022-11-15T01:53:40;101939.69;;;11.06;40.99
50852;BME280;43953;45.508;-122.806;2022-11-15T01:54:16;101955.22;;;11.04;41.19
50852;BME280;43953;45.508;-122.806;2022-11-15T01:54:53;101945.28;;;11.04;41.30
50852;BME280;43953;45.508;-122.806;2022-11-15T01:55:27;101947.28;;;11.02;40.71
50852;BME280;43953;45.508;-122.806;2022-11-15T01:56:00;101946.47;;;11.02;41.19
50852;BME280;43953;45.508;-122.806;2022-11-15T01:56:42;101950.19;;;11.01;40.77
50852;BME280;43953;45.508;-122.806;2022-11-15T01:57:16;101943.31;;;10.98;41.41
50852;BME280;43953;45.508;-122.806;2022-11-15T01:57:51;101950.56;;;10.98;40.95
50852;BME280;43953;45.508;-122.806;2022-11-15T01:58:24;101953.25;;;10.98;40.84
50852;BME280;43953;45.508;-122.806;2022-11-15T01:58:58;101947.88;;;10.98;41.05
50852;BME280;43953;45.508;-122.806;2022-11-15T01:59:31;101951.38;;;10.98;40.70
50852;BME280;43953;45.508;-122.806;2022-11-15T02:00:04;101944.13;;;10.99;40.89
50852;BME280;43953;45.508;-122.806;2022-11-15T02:00:36;101945.16;;;10.98;40.90
50852;BME280;43953;45.508;-122.806;2022-11-15T02:01:08;101937.09;;;10.98;40.82
50852;BME280;43953;45.508;-122.806;2022-11-15T02:01:40;101942.47;;;10.98;40.77
50852;BME280;43953;45.508;-122.806;2022-11-15T02:02:13;101943.47;;;10.97;40.87
50852;BME280;43953;45.508;-122.806;2022-11-15T02:02:44;101947.19;;;10.96;40.90
50852;BME280;43953;45.508;-122.806;2022-11-15T02:03:16;101949.06;;;10.95;40.89
50852;BME280;43953;45.508;-122.806;2022-11-15T02:04:01;101945.53;;;10.95;41.06
50852;BME280;43953;45.508;-122.806;2022-11-15T02:04:40;101931.75;;;10.89;40.74
50852;BME280;43953;45.508;-122.806;2022-11-15T02:05:12;101936.47;;;10.87;40.90
50852;BME280;43953;45.508;-122.806;2022-11-15T02:05:44;101943.56;;;10.88;41.21
50852;BME280;43953;45.508;-122.806;2022-11-15T02:06:16;101933.78;;;10.87;40.87
50852;BME280;43953;45.508;-122.806;2022-11-15T02:06:48;101949.94;;;10.87;41.13
50852;BME280;43953;45.508;-122.806;2022-11-15T02:07:21;101943.72;;;10.87;40.80
50852;BME280;43953;45.508;-122.806;2022-11-15T02:07:53;101945.59;;;10.86;40.81
50852;BME280;43953;45.508;-122.806;2022-11-15T02:08:25;101939.38;;;10.86;40.75
50852;BME280;43953;45.508;-122.806;2022-11-15T02:08:57;101951.34;;;10.83;41.31
50852;BME280;43953;45.508;-122.806;2022-11-15T02:09:30;101956.72;;;10.83;41.16
50852;BME280;43953;45.508;-122.806;2022-11-15T02:10:17;101944.44;;;10.81;40.87
50852;BME280;43953;45.508;-122.806;2022-11-15T02:10:49;101961.66;;;10.80;40.62
50852;BME280;43953;45.508;-122.806;2022-11-15T02:11:20;101953.72;;;10.78;41.04
50852;BME280;43953;45.508;-122.806;2022-11-15T02:11:54;101959.47;;;10.75;40.88
50852;BME280;43953;45.508;-122.806;2022-11-15T02:12:27;101954.09;;;10.75;40.96
50852;BME280;43953;45.508;-122.806;2022-11-15T02:13:00;101955.94;;;10.75;41.10
50852;BME280;43953;45.508;-122.806;2022-11-15T02:13:33;101963.19;;;10.74;41.23
50852;BME280;43953;45.508;-122.806;2022-11-15T02:14:05;101957.97;;;10.73;41.10
50852;BME280;43953;45.508;-122.806;2022-11-15T02:14:40;101954.63;;;10.70;41.41
50852;BME280;43953;45.508;-122.806;2022-11-15T02:15:13;101963.56;;;10.71;41.17
50852;BME280;43953;45.508;-122.806;2022-11-15T02:17:59;101968.28;;;10.69;40.92
50852;BME280;43953;45.508;-122.806;2022-11-15T02:18:37;101949.41;;;10.69;41.08
50852;BME280;43953;45.508;-122.806;2022-11-15T02:20:14;101962.22;;;10.67;41.33
50852;BME280;43953;45.508;-122.806;2022-11-15T02:20:55;101968.63;;;10.66;41.05
50852;BME280;43953;45.508;-122.806;2022-11-15T02:21:43;101973.34;;;10.64;40.99
50852;BME280;43953;45.508;-122.806;2022-11-15T02:29:01;101972.75;;;10.54;41.62
50852;BME280;43953;45.508;-122.806;2022-11-15T02:30:49;101987.22;;;10.53;41.75
50852;BME280;43953;45.508;-122.806;2022-11-15T02:33:19;101967.72;;;10.51;41.73
50852;BME280;43953;45.508;-122.806;2022-11-15T02:34:47;101968.09;;;10.47;41.81
50852;BME280;43953;45.508;-122.806;2022-11-15T02:36:49;101986.78;;;10.41;41.99
50852;BME280;43953;45.508;-122.806;2022-11-15T02:38:21;101985.31;;;10.38;41.72
50852;BME280;43953;45.508;-122.806;2022-11-15T02:38:34;101977.38;;;10.37;41.91
50852;BME280;43953;45.508;-122.806;2022-11-15T02:39:39;101983.97;;;10.34;41.47
50852;BME280;43953;45.508;-122.806;2022-11-15T02:40:58;101979.41;;;10.35;41.67
50852;BME280;43953;45.508;-122.806;2022-11-15T02:41:50;101984.78;;;10.35;41.74
50852;BME280;43953;45.508;-122.806;2022-11-15T02:42:29;101981.47;;;10.33;41.70
50852;BME280;43953;45.508;-122.806;2022-11-15T02:43:29;101984.31;;;10.31;42.23
50852;BME280;43953;45.508;-122.806;2022-11-15T02:44:30;101982.81;;;10.29;42.31
50852;BME280;43953;45.508;-122.806;2022-11-15T02:45:07;101984.31;;;10.31;42.42
50852;BME280;43953;45.508;-122.806;2022-11-15T02:45:46;101987.19;;;10.30;42.09
50852;BME280;43953;45.508;-122.806;2022-11-15T02:46:31;101984.66;;;10.28;42.05
50852;BME280;43953;45.508;-122.806;2022-11-15T02:47:24;101981.47;;;10.24;42.38
50852;BME280;43953;45.508;-122.806;2022-11-15T02:47:59;101998.63;;;10.23;42.46
50852;BME280;43953;45.508;-122.806;2022-11-15T02:48:34;101981.63;;;10.23;42.39
50852;BME280;43953;45.508;-122.806;2022-11-15T02:49:07;101993.41;;;10.22;42.56
50852;BME280;43953;45.508;-122.806;2022-11-15T02:49:50;101993.59;;;10.20;41.98
50852;BME280;43953;45.508;-122.806;2022-11-15T02:50:26;101992.09;;;10.18;42.31
50852;BME280;43953;45.508;-122.806;2022-11-15T02:50:59;101991.06;;;10.19;42.23
50852;BME280;43953;45.508;-122.806;2022-11-15T02:51:32;101989.41;;;10.18;42.73
50852;BME280;43953;45.508;-122.806;2022-11-15T02:52:04;101993.78;;;10.19;42.33
50852;BME280;43953;45.508;-122.806;2022-11-15T02:52:36;101987.72;;;10.17;42.70
50852;BME280;43953;45.508;-122.806;2022-11-15T02:53:08;101993.09;;;10.17;42.79
50852;BME280;43953;45.508;-122.806;2022-11-15T02:53:40;101993.94;;;10.17;42.91
50852;BME280;43953;45.508;-122.806;2022-11-15T02:54:20;101991.44;;;10.16;42.79
50852;BME280;43953;45.508;-122.806;2022-11-15T02:55:02;102001.53;;;10.14;42.80
50852;BME280;43953;45.508;-122.806;2022-11-15T02:55:41;101991.78;;;10.13;42.71
50852;BME280;43953;45.508;-122.806;2022-11-15T02:56:14;102000.88;;;10.12;42.52
50852;BME280;43953;45.508;-122.806;2022-11-15T02:56:46;101984.72;;;10.12;42.33
50852;BME280;43953;45.508;-122.806;2022-11-15T02:58:36;101997.31;;;10.11;42.83
50852;BME280;43953;45.508;-122.806;2022-11-15T03:00:35;101995.66;;;10.10;42.87
50852;BME280;43953;45.508;-122.806;2022-11-15T03:02:17;101999.72;;;10.06;43.28
50852;BME280;43953;45.508;-122.806;2022-11-15T03:03:43;102007.59;;;10.08;42.95
50852;BME280;43953;45.508;-122.806;2022-11-15T03:05:25;101996.34;;;10.04;42.91
50852;BME280;43953;45.508;-122.806;2022-11-15T03:06:46;102010.84;;;10.03;42.83
50852;BME280;43953;45.508;-122.806;2022-11-15T03:09:34;102006.31;;;9.95;43.05
50852;BME280;43953;45.508;-122.806;2022-11-15T03:10:18;102007.34;;;9.94;43.02
50852;BME280;43953;45.508;-122.806;2022-11-15T03:11:15;102005.81;;;9.92;43.63
50852;BME280;43953;45.508;-122.806;2022-11-15T03:11:53;101999.59;;;9.91;43.57
50852;BME280;43953;45.508;-122.806;2022-11-15T03:12:34;101999.59;;;9.91;43.57
50852;BME280;43953;45.508;-122.806;2022-11-15T03:13:27;102006.81;;;9.91;43.43
50852;BME280;43953;45.508;-122.806;2022-11-15T03:14:14;101992.53;;;9.90;43.24
50852;BME280;43953;45.508;-122.806;2022-11-15T03:15:08;101999.94;;;9.88;43.48
50852;BME280;43953;45.508;-122.806;2022-11-15T03:15:58;102002.63;;;9.88;43.11
50852;BME280;43953;45.508;-122.806;2022-11-15T03:16:38;102014.41;;;9.87;43.27
50852;BME280;43953;45.508;-122.806;2022-11-15T03:17:18;102009.00;;;9.87;42.99
50852;BME280;43953;45.508;-122.806;2022-11-15T03:18:40;102005.69;;;9.85;43.21
50852;BME280;43953;45.508;-122.806;2022-11-15T03:19:37;102013.91;;;9.84;42.83
50852;BME280;43953;45.508;-122.806;2022-11-15T03:20:13;102006.03;;;9.82;43.42